Time;durP1;ratioP1;P1;durP2;ratioP2;P2;SDS_P1;SDS_P2;PMS_P1;PMS_P2;Temp;Humidity;BMP_temperature;BMP_pressure;BME280_temperature;BME280_humidity;BME280_pressure;Samples;Min_cycle;Max_cycle;Signal;HPM_P1;HPM_P2
2022/09/18 00:00:54;;;;;;;1.80;0.50;;;9.60;99.90;;;;;;5057579;28;20037;-75
2022/09/18 00:03:20;;;;;;;0.52;0.35;;;9.70;99.90;;;;;;5024612;28;20086;-75
2022/09/18 00:05:46;;;;;;;1.02;0.47;;;9.60;99.90;;;;;;5057425;28;20128;-75
2022/09/18 00:08:11;;;;;;;0.80;0.40;;;9.50;99.90;;;;;;5040871;28;20043;-75
2022/09/18 00:10:45;;;;;;;0.70;0.38;;;9.50;99.90;;;;;;5040753;28;20056;-75
2022/09/18 00:13:14;;;;;;;2.92;0.55;;;9.50;99.90;;;;;;5057361;28;20040;-75
2022/09/18 00:15:40;;;;;;;0.70;0.30;;;9.50;99.90;;;;;;5057278;28;20123;-75
2022/09/18 00:18:07;;;;;;;5.78;0.80;;;9.50;99.90;;;;;;5057262;28;20147;-75
2022/09/18 00:20:34;;;;;;;1.02;0.40;;;9.50;99.90;;;;;;5040670;28;20048;-75
2022/09/18 00:23:00;;;;;;;1.67;0.32;;;9.30;99.90;;;;;;5008009;28;20040;-75
2022/09/18 00:25:26;;;;;;;3.47;0.70;;;9.50;99.90;;;;;;5040531;28;20412;-75
2022/09/18 00:27:52;;;;;;;1.15;0.40;;;9.50;99.90;;;;;;5056929;28;20135;-74
2022/09/18 00:30:18;;;;;;;0.22;0.20;;;9.40;99.90;;;;;;5040636;28;20059;-75
2022/09/18 00:32:43;;;;;;;2.67;1.10;;;9.50;99.90;;;;;;5040361;28;20047;-75
2022/09/18 00:35:09;;;;;;;1.85;0.73;;;9.40;99.90;;;;;;5040355;28;20036;-75
2022/09/18 00:37:35;;;;;;;1.13;0.32;;;9.50;99.90;;;;;;5040635;28;20487;-75
2022/09/18 00:40:01;;;;;;;4.22;0.57;;;9.50;99.90;;;;;;5007406;28;20101;-75
2022/09/18 00:42:26;;;;;;;2.58;0.50;;;9.50;99.90;;;;;;5056832;28;20123;-75
2022/09/18 00:44:52;;;;;;;0.50;0.30;;;9.50;99.90;;;;;;5040150;28;20547;-75
2022/09/18 00:47:42;;;;;;;3.13;0.52;;;9.70;99.90;;;;;;5023659;28;20557;-74
2022/09/18 00:50:13;;;;;;;2.28;0.50;;;9.50;99.90;;;;;;5040053;28;20039;-75
2022/09/18 00:53:01;;;;;;;0.90;0.52;;;9.50;99.90;;;;;;5056572;28;20044;-75
2022/09/18 00:55:31;;;;;;;1.92;0.60;;;10.10;99.90;;;;;;5056375;28;20080;-75
2022/09/18 00:57:59;;;;;;;1.73;0.55;;;9.60;99.90;;;;;;5056696;28;20040;-75
2022/09/18 01:00:26;;;;;;;0.65;0.40;;;9.60;99.90;;;;;;5056781;28;20566;-75
2022/09/18 01:02:52;;;;;;;1.17;0.40;;;9.60;99.90;;;;;;5055995;28;20506;-75
2022/09/18 01:05:57;;;;;;;1.83;0.60;;;9.60;99.90;;;;;;5056346;28;20036;-75
2022/09/18 01:08:48;;;;;;;0.45;0.30;;;9.60;99.90;;;;;;5012862;28;20045;-75
2022/09/18 01:11:35;;;;;;;3.65;0.47;;;9.60;99.90;;;;;;5039619;28;20040;-74
2022/09/18 01:14:07;;;;;;;5.35;0.70;;;9.50;99.90;;;;;;5056146;28;20047;-75
2022/09/18 01:16:50;;;;;;;0.80;0.50;;;9.70;99.90;;;;;;5056193;28;20062;-74
2022/09/18 01:19:59;;;;;;;1.38;0.60;;;9.60;99.90;;;;;;5039353;28;20125;-74
2022/09/18 01:22:46;;;;;;;0.63;0.40;;;9.60;99.90;;;;;;5056049;28;20117;-75
2022/09/18 01:25:19;;;;;;;3.55;0.55;;;9.60;99.90;;;;;;5055961;28;20067;-75
2022/09/18 01:28:03;;;;;;;1.27;0.73;;;9.70;99.90;;;;;;5056160;28;20043;-75
2022/09/18 01:30:31;;;;;;;2.95;0.47;;;9.70;99.90;;;;;;5055840;28;20036;-75
2022/09/18 01:33:05;;;;;;;0.57;0.47;;;9.70;99.90;;;;;;5039311;28;20044;-75
2022/09/18 01:35:48;;;;;;;0.52;0.40;;;9.60;99.90;;;;;;5039182;28;20041;-74
2022/09/18 01:38:32;;;;;;;2.40;0.40;;;9.80;99.90;;;;;;5055812;28;20132;-75
2022/09/18 01:41:06;;;;;;;1.45;0.40;;;9.70;99.90;;;;;;5055905;28;20518;-75
2022/09/18 01:43:35;;;;;;;1.63;0.50;;;9.60;99.90;;;;;;5055566;28;20044;-75
2022/09/18 01:46:07;;;;;;;0.30;0.30;;;9.60;99.90;;;;;;5055869;28;20480;-75
2022/09/18 01:48:39;;;;;;;1.20;0.50;;;9.60;99.90;;;;;;5055576;28;20072;-75
2022/09/18 01:51:12;;;;;;;2.03;0.40;;;9.60;99.90;;;;;;5055421;28;20041;-75
2022/09/18 01:53:45;;;;;;;0.85;0.35;;;9.60;99.90;;;;;;5039165;28;20122;-75
2022/09/18 01:56:34;;;;;;;2.45;0.55;;;9.60;99.90;;;;;;5055723;28;20079;-75
2022/09/18 01:59:05;;;;;;;0.73;0.32;;;9.60;99.90;;;;;;5055629;28;20510;-75
2022/09/18 02:01:32;;;;;;;0.82;0.45;;;9.60;99.90;;;;;;5038819;28;20040;-74
2022/09/18 02:04:03;;;;;;;1.00;0.30;;;9.60;99.90;;;;;;5055236;28;20040;-75
2022/09/18 02:06:41;;;;;;;6.38;0.73;;;9.60;99.90;;;;;;5055328;28;20039;-74
2022/09/18 02:09:09;;;;;;;0.65;0.40;;;9.60;99.90;;;;;;5055270;28;20040;-75
2022/09/18 02:11:38;;;;;;;2.22;0.55;;;9.60;99.90;;;;;;5038995;28;20618;-75
2022/09/18 02:14:19;;;;;;;1.52;0.40;;;9.60;99.90;;;;;;5054407;28;20055;-75
2022/09/18 02:16:52;;;;;;;1.05;0.40;;;9.60;99.90;;;;;;5055227;28;20045;-75
2022/09/18 02:19:33;;;;;;;2.28;0.65;;;9.60;99.90;;;;;;5055146;28;20135;-74
2022/09/18 02:22:04;;;;;;;3.10;0.60;;;9.60;99.90;;;;;;5038456;28;20041;-75
2022/09/18 02:24:35;;;;;;;2.35;0.47;;;9.60;99.90;;;;;;5055197;28;20796;-75
2022/09/18 02:27:03;;;;;;;0.98;0.47;;;9.60;99.90;;;;;;5055071;28;20056;-75
2022/09/18 02:29:30;;;;;;;5.68;0.50;;;9.60;99.90;;;;;;5054993;28;20044;-75
2022/09/18 02:31:59;;;;;;;5.05;0.75;;;9.60;99.90;;;;;;5022159;28;20036;-75
2022/09/18 02:34:26;;;;;;;1.52;0.60;;;9.60;99.90;;;;;;5038600;28;20041;-75
2022/09/18 02:37:04;;;;;;;1.88;0.43;;;9.60;99.90;;;;;;5055010;28;20041;-75
2022/09/18 02:39:48;;;;;;;1.67;0.57;;;9.60;99.90;;;;;;5038328;28;20132;-75
2022/09/18 02:42:14;;;;;;;0.88;0.45;;;9.60;99.90;;;;;;5055003;28;20047;-75
2022/09/18 02:45:16;;;;;;;2.20;0.52;;;9.60;99.90;;;;;;5038272;28;20044;-75
2022/09/18 02:48:08;;;;;;;1.10;0.40;;;9.60;99.90;;;;;;5038364;28;20078;-75
2022/09/18 02:50:36;;;;;;;;;;;9.70;99.90;;;;;;5055325;28;20112;-75
2022/09/18 02:53:29;;;;;;;0.28;0.20;;;9.60;99.90;;;;;;5038199;28;19960;-75
2022/09/18 02:56:03;;;;;;;0.60;0.30;;;9.70;99.90;;;;;;5038266;28;20080;-75
2022/09/18 02:58:54;;;;;;;3.00;0.73;;;9.70;99.90;;;;;;5054866;28;20044;-75
2022/09/18 03:01:22;;;;;;;3.10;0.43;;;9.70;99.90;;;;;;5054886;28;20119;-74
2022/09/18 03:03:50;;;;;;;2.30;0.40;;;9.70;99.90;;;;;;5054754;28;20075;-75
2022/09/18 03:06:16;;;;;;;1.98;0.60;;;9.70;99.90;;;;;;5038105;28;20051;-74
2022/09/18 03:08:42;;;;;;;1.75;0.43;;;9.80;99.90;;;;;;5054836;28;20049;-75
2022/09/18 03:11:08;;;;;;;1.15;0.63;;;9.80;99.90;;;;;;5021752;28;20142;-74
2022/09/18 03:13:34;;;;;;;1.98;0.50;;;9.80;99.90;;;;;;5021824;28;20040;-74
2022/09/18 03:16:00;;;;;;;1.10;0.50;;;9.90;99.90;;;;;;5038180;28;20120;-75
2022/09/18 03:18:25;;;;;;;1.45;0.50;;;9.80;99.90;;;;;;5054549;28;20037;-75
2022/09/18 03:20:51;;;;;;;1.05;0.32;;;10.00;99.90;;;;;;5054725;28;20098;-75
2022/09/18 03:23:17;;;;;;;0.38;0.30;;;9.90;99.90;;;;;;5038124;28;20051;-74
2022/09/18 03:25:43;;;;;;;3.22;0.95;;;10.20;99.90;;;;;;5038818;28;20047;-74
2022/09/18 03:28:09;;;;;;;2.22;0.47;;;10.40;99.90;;;;;;5041782;28;20044;-74
2022/09/18 03:30:35;;;;;;;1.27;0.40;;;10.00;99.90;;;;;;5042034;28;20127;-74
2022/09/18 03:33:01;;;;;;;0.40;0.28;;;10.00;99.90;;;;;;5042144;28;20397;-74
2022/09/18 03:35:26;;;;;;;1.08;0.30;;;10.00;99.90;;;;;;5042715;28;20057;-73
2022/09/18 03:37:53;;;;;;;0.55;0.45;;;10.00;99.90;;;;;;5041915;28;20044;-74
2022/09/18 03:40:19;;;;;;;5.20;0.68;;;10.30;99.90;;;;;;5042251;28;20166;-74
2022/09/18 03:42:45;;;;;;;0.35;0.32;;;10.10;99.90;;;;;;5042304;28;20032;-74
2022/09/18 03:45:12;;;;;;;1.50;0.38;;;10.10;99.90;;;;;;5025670;28;20140;-73
2022/09/18 03:47:38;;;;;;;0.25;0.25;;;10.10;99.90;;;;;;5058504;28;20143;-75
2022/09/18 03:50:05;;;;;;;0.95;0.55;;;10.10;99.90;;;;;;5042115;28;20037;-74
2022/09/18 03:52:32;;;;;;;1.85;0.30;;;10.10;99.90;;;;;;5042128;28;20476;-74
2022/09/18 03:54:58;;;;;;;0.73;0.30;;;10.10;99.90;;;;;;5058632;28;20380;-75
2022/09/18 03:57:23;;;;;;;1.33;0.45;;;10.10;99.90;;;;;;5058101;28;20044;-75
2022/09/18 03:59:49;;;;;;;2.50;0.70;;;10.00;99.90;;;;;;5041698;28;20048;-74
2022/09/18 04:02:15;;;;;;;0.75;0.43;;;10.10;99.90;;;;;;5041700;28;20135;-74
2022/09/18 04:04:41;;;;;;;1.33;0.30;;;10.00;99.90;;;;;;5041336;28;20037;-74
2022/09/18 04:07:07;;;;;;;3.95;0.70;;;10.10;99.90;;;;;;5041652;28;20041;-74
2022/09/18 04:09:33;;;;;;;1.35;0.30;;;10.00;99.90;;;;;;5041527;28;20119;-75
2022/09/18 04:11:59;;;;;;;1.23;0.40;;;10.00;99.90;;;;;;5041483;28;20174;-74
2022/09/18 04:14:25;;;;;;;4.22;0.60;;;10.00;99.90;;;;;;5058144;28;20080;-74
2022/09/18 04:16:51;;;;;;;3.15;0.30;;;10.00;99.90;;;;;;5040981;28;20130;-74
2022/09/18 04:19:16;;;;;;;0.90;0.38;;;10.00;99.90;;;;;;5041222;28;20064;-74
2022/09/18 04:21:42;;;;;;;6.80;0.85;;;10.00;99.90;;;;;;5041352;28;20041;-74
2022/09/18 04:24:08;;;;;;;2.38;0.55;;;10.00;99.90;;;;;;5041019;28;20049;-74
2022/09/18 04:26:35;;;;;;;2.50;0.38;;;10.00;99.90;;;;;;5040927;28;20223;-74
2022/09/18 04:29:01;;;;;;;3.72;0.22;;;10.00;99.90;;;;;;5024839;28;20446;-74
2022/09/18 04:31:27;;;;;;;1.80;0.60;;;10.00;99.90;;;;;;5057641;28;20403;-74
2022/09/18 04:33:52;;;;;;;0.40;0.30;;;10.00;99.90;;;;;;5024380;28;20032;-74
2022/09/18 04:36:18;;;;;;;3.42;0.75;;;10.00;99.90;;;;;;5040893;28;20043;-74
2022/09/18 04:38:44;;;;;;;1.08;0.32;;;10.00;99.90;;;;;;5056621;28;20475;-74
2022/09/18 04:41:10;;;;;;;3.97;0.73;;;10.00;99.90;;;;;;5057468;28;20037;-74
2022/09/18 04:43:35;;;;;;;6.30;0.82;;;10.20;99.90;;;;;;5024258;28;20055;-74
2022/09/18 04:46:01;;;;;;;2.25;0.30;;;10.10;99.90;;;;;;5040932;28;20040;-75
2022/09/18 04:48:27;;;;;;;2.15;0.68;;;10.10;99.90;;;;;;5024202;28;20042;-74
2022/09/18 04:50:52;;;;;;;1.10;0.43;;;10.00;99.90;;;;;;5040823;28;20031;-73
2022/09/18 04:53:19;;;;;;;0.57;0.30;;;10.10;99.90;;;;;;5024323;28;20036;-74
2022/09/18 04:55:45;;;;;;;2.70;0.40;;;10.00;99.90;;;;;;5057206;28;20042;-74
2022/09/18 04:58:12;;;;;;;1.15;0.38;;;10.00;99.90;;;;;;5040372;28;20089;-73
2022/09/18 05:00:38;;;;;;;1.58;0.30;;;10.00;99.90;;;;;;5057000;28;20048;-74
2022/09/18 05:03:05;;;;;;;0.88;0.43;;;9.70;99.90;;;;;;5024212;28;20072;-74
2022/09/18 05:05:30;;;;;;;2.40;0.40;;;10.10;99.90;;;;;;5040725;28;20045;-74
2022/09/18 05:08:00;;;;;;;0.93;0.40;;;10.00;99.90;;;;;;5040080;28;20457;-74
2022/09/18 05:10:27;;;;;;;0.25;0.25;;;10.10;99.90;;;;;;5040480;28;20041;-73
2022/09/18 05:12:53;;;;;;;2.88;0.60;;;10.00;99.90;;;;;;5056635;28;20033;-74
2022/09/18 05:15:19;;;;;;;2.30;0.50;;;10.10;99.90;;;;;;5023702;28;20055;-74
2022/09/18 05:17:45;;;;;;;2.63;0.40;;;10.30;99.90;;;;;;5039563;28;20123;-74
2022/09/18 05:20:12;;;;;;;1.52;0.40;;;10.10;99.90;;;;;;5023007;28;20105;-74
2022/09/18 05:22:38;;;;;;;3.85;0.40;;;10.10;99.90;;;;;;5056140;28;20140;-74
2022/09/18 05:25:04;;;;;;;3.60;0.68;;;10.10;99.90;;;;;;5056108;28;20079;-75
2022/09/18 05:27:30;;;;;;;1.45;0.68;;;10.10;99.90;;;;;;5006743;28;20072;-75
2022/09/18 05:29:56;;;;;;;1.55;0.47;;;10.10;99.90;;;;;;5039589;28;20072;-74
2022/09/18 05:32:21;;;;;;;1.45;0.50;;;10.10;99.90;;;;;;5039526;28;20093;-74
2022/09/18 05:34:50;;;;;;;0.35;0.30;;;10.10;99.90;;;;;;5055805;28;20083;-74
2022/09/18 05:37:17;;;;;;;0.25;0.25;;;10.10;99.90;;;;;;5039138;28;20040;-74
2022/09/18 05:39:42;;;;;;;1.80;0.60;;;10.50;99.90;;;;;;5039164;28;20145;-74
2022/09/18 05:42:09;;;;;;;0.98;0.45;;;10.20;99.90;;;;;;5022682;28;20075;-74
2022/09/18 05:44:35;;;;;;;1.90;0.40;;;10.20;99.90;;;;;;5038916;28;20119;-74
2022/09/18 05:47:00;;;;;;;3.13;0.47;;;10.20;99.90;;;;;;5055684;28;20136;-74
2022/09/18 05:49:26;;;;;;;0.22;0.22;;;10.20;99.90;;;;;;5038899;28;20078;-74
2022/09/18 05:51:53;;;;;;;3.60;0.50;;;10.20;99.90;;;;;;5022458;28;20040;-74
2022/09/18 05:54:19;;;;;;;1.63;0.32;;;10.20;99.90;;;;;;5055644;28;20051;-74
2022/09/18 05:56:45;;;;;;;0.60;0.50;;;10.20;99.90;;;;;;5022500;28;20080;-74
2022/09/18 05:59:12;;;;;;;0.38;0.22;;;10.30;99.90;;;;;;5039243;28;20047;-74
2022/09/18 06:01:37;;;;;;;1.48;0.30;;;10.20;99.90;;;;;;5039010;28;20105;-74
2022/09/18 06:04:04;;;;;;;1.60;0.50;;;10.20;99.90;;;;;;5055563;28;20044;-73
2022/09/18 06:06:30;;;;;;;0.47;0.40;;;10.30;99.90;;;;;;5038763;28;20049;-74
2022/09/18 06:08:56;;;;;;;2.72;0.30;;;10.20;99.90;;;;;;5055424;28;20043;-74
2022/09/18 06:11:22;;;;;;;0.90;0.40;;;10.30;99.90;;;;;;5038983;28;20082;-74
2022/09/18 06:13:50;;;;;;;0.20;0.20;;;10.60;99.90;;;;;;5055629;28;20036;-74
2022/09/18 06:16:18;;;;;;;0.60;0.40;;;10.30;99.90;;;;;;5055760;28;20078;-74
2022/09/18 06:18:44;;;;;;;0.82;0.40;;;10.30;99.90;;;;;;5055658;28;20567;-75
2022/09/18 06:21:13;;;;;;;0.68;0.25;;;10.30;99.90;;;;;;5055279;28;20123;-74
2022/09/18 06:23:40;;;;;;;1.35;0.47;;;10.30;99.90;;;;;;5023511;28;20408;-74
2022/09/18 06:26:06;;;;;;;1.02;0.30;;;10.40;99.90;;;;;;5022700;28;20058;-74
2022/09/18 06:28:33;;;;;;;0.57;0.32;;;10.40;99.90;;;;;;5055088;28;20111;-73
2022/09/18 06:31:00;;;;;;;0.20;0.20;;;10.40;99.90;;;;;;5038689;28;20182;-73
2022/09/18 06:33:28;;;;;;;1.17;0.68;;;10.40;99.90;;;;;;5055039;28;20044;-73
2022/09/18 06:35:54;;;;;;;0.85;0.47;;;10.40;99.90;;;;;;5055303;28;20138;-74
2022/09/18 06:38:19;;;;;;;0.43;0.25;;;10.40;99.90;;;;;;5038664;28;20396;-74
2022/09/18 06:40:53;;;;;;;0.65;0.30;;;10.50;99.90;;;;;;5038503;28;20041;-73
2022/09/18 06:43:19;;;;;;;2.22;0.40;;;10.50;99.90;;;;;;5054995;28;20041;-74
2022/09/18 06:45:53;;;;;;;1.65;0.57;;;10.50;99.90;;;;;;5055095;28;20507;-74
2022/09/18 06:48:19;;;;;;;0.40;0.30;;;10.50;99.90;;;;;;5055374;28;20392;-74
2022/09/18 06:50:51;;;;;;;0.35;0.30;;;10.50;99.90;;;;;;5038534;28;20550;-73
2022/09/18 06:53:17;;;;;;;1.95;0.50;;;10.50;99.90;;;;;;5038639;28;20047;-74
2022/09/18 06:55:42;;;;;;;0.80;0.40;;;10.60;99.90;;;;;;5038387;28;20037;-74
2022/09/18 06:58:08;;;;;;;0.30;0.30;;;10.60;99.90;;;;;;5038624;28;20052;-74
2022/09/18 07:00:34;;;;;;;0.90;0.60;;;10.70;99.90;;;;;;5039968;28;20055;-74
2022/09/18 07:03:02;;;;;;;1.35;0.40;;;10.60;99.90;;;;;;5058633;28;20036;-75
2022/09/18 07:05:32;;;;;;;0.30;0.30;;;10.60;99.90;;;;;;5058635;28;20147;-75
2022/09/18 07:07:58;;;;;;;1.67;0.57;;;10.70;99.90;;;;;;5041932;28;20040;-74
2022/09/18 07:10:25;;;;;;;3.22;0.47;;;10.70;99.90;;;;;;5076468;28;20087;-75
2022/09/18 07:12:58;;;;;;;1.10;0.40;;;10.70;99.90;;;;;;5025540;28;20083;-75
2022/09/18 07:15:25;;;;;;;2.38;0.50;;;10.80;99.90;;;;;;5059005;28;20048;-74
2022/09/18 07:17:51;;;;;;;1.35;0.40;;;10.80;99.90;;;;;;5058604;28;20044;-74
2022/09/18 07:20:19;;;;;;;2.60;0.80;;;10.80;99.90;;;;;;5041807;28;20097;-74
2022/09/18 07:22:52;;;;;;;1.77;0.60;;;10.80;99.90;;;;;;5025667;28;20041;-74
2022/09/18 07:25:18;;;;;;;0.73;0.35;;;10.60;99.90;;;;;;5041707;28;20404;-74
2022/09/18 07:27:44;;;;;;;1.55;0.60;;;10.80;99.90;;;;;;5041824;28;20040;-74
2022/09/18 07:30:10;;;;;;;1.10;0.77;;;10.80;99.90;;;;;;5041760;28;20044;-74
2022/09/18 07:32:36;;;;;;;0.95;0.55;;;10.80;99.90;;;;;;5058461;28;20037;-74
2022/09/18 07:35:02;;;;;;;0.47;0.30;;;10.80;99.90;;;;;;5058363;28;20051;-75
2022/09/18 07:37:28;;;;;;;2.72;0.55;;;10.90;99.90;;;;;;5058354;28;20053;-76
2022/09/18 07:39:54;;;;;;;1.30;0.40;;;10.90;99.90;;;;;;5041467;28;20474;-74
2022/09/18 07:42:19;;;;;;;0.43;0.40;;;10.80;99.90;;;;;;5041773;28;20076;-73
2022/09/18 07:44:45;;;;;;;1.67;0.40;;;10.90;99.90;;;;;;5041375;28;20047;-73
2022/09/18 07:47:11;;;;;;;0.70;0.47;;;10.80;99.90;;;;;;5008578;28;20036;-74
2022/09/18 07:49:37;;;;;;;1.77;0.40;;;10.80;99.90;;;;;;5041290;28;20176;-74
2022/09/18 07:52:04;;;;;;;1.98;0.40;;;10.80;99.90;;;;;;5024959;28;20090;-76
2022/09/18 07:54:30;;;;;;;0.50;0.30;;;10.90;99.90;;;;;;5057873;28;20131;-74
2022/09/18 07:56:55;;;;;;;1.70;0.40;;;10.90;99.90;;;;;;5041219;28;20128;-74
2022/09/18 07:59:21;;;;;;;0.40;0.40;;;10.90;99.90;;;;;;5057518;28;20044;-74
2022/09/18 08:01:47;;;;;;;1.80;0.70;;;10.90;99.90;;;;;;5041050;28;20044;-73
2022/09/18 08:04:13;;;;;;;1.80;0.60;;;10.90;99.90;;;;;;5041314;28;20041;-74
2022/09/18 08:06:39;;;;;;;0.85;0.50;;;10.90;99.90;;;;;;5024686;28;20123;-74
2022/09/18 08:09:05;;;;;;;1.30;0.60;;;10.90;99.90;;;;;;5057239;28;20125;-73
2022/09/18 08:11:31;;;;;;;1.75;0.60;;;10.90;99.90;;;;;;5057115;28;20399;-73
2022/09/18 08:13:56;;;;;;;1.48;0.50;;;10.90;99.90;;;;;;5057112;28;20032;-74
2022/09/18 08:16:22;;;;;;;1.88;0.75;;;10.80;99.90;;;;;;5040787;28;20055;-74
2022/09/18 08:18:48;;;;;;;2.65;0.65;;;10.90;99.90;;;;;;5023702;28;20191;-74
2022/09/18 08:21:14;;;;;;;1.60;0.57;;;10.80;99.90;;;;;;5056818;28;20041;-73
2022/09/18 08:23:39;;;;;;;1.25;0.68;;;10.80;99.90;;;;;;5057065;28;20109;-74
2022/09/18 08:26:05;;;;;;;1.30;0.47;;;10.80;99.90;;;;;;5040400;28;20048;-74
2022/09/18 08:28:31;;;;;;;1.45;0.70;;;11.10;99.90;;;;;;5073597;28;20075;-75
2022/09/18 08:30:57;;;;;;;0.45;0.30;;;10.90;99.90;;;;;;5023615;28;20048;-74
2022/09/18 08:33:23;;;;;;;2.72;0.68;;;10.90;99.90;;;;;;5056822;28;20377;-73
2022/09/18 08:35:49;;;;;;;1.23;0.50;;;10.90;99.90;;;;;;5040247;28;20131;-74
2022/09/18 08:38:15;;;;;;;0.65;0.30;;;10.90;99.90;;;;;;5057108;28;20559;-76
2022/09/18 08:41:10;;;;;;;3.10;0.30;;;10.90;99.90;;;;;;5024216;28;20434;-76
2022/09/18 08:43:36;;;;;;;0.57;0.40;;;11.00;99.90;;;;;;5036775;28;20051;-76
2022/09/18 08:46:26;;;;;;;0.95;0.52;;;11.00;99.90;;;;;;5040104;28;20040;-75
2022/09/18 08:48:57;;;;;;;2.53;1.47;;;11.00;99.90;;;;;;5026135;28;20051;-75
2022/09/18 08:51:45;;;;;;;4.53;1.10;;;11.00;99.90;;;;;;5056372;28;20282;-76
2022/09/18 08:54:33;;;;;;;0.63;0.45;;;11.00;99.90;;;;;;5056471;28;20052;-75
2022/09/18 08:57:05;;;;;;;0.38;0.28;;;10.90;99.90;;;;;;5056338;28;20056;-75
2022/09/18 08:59:45;;;;;;;1.80;0.70;;;10.90;99.90;;;;;;5056620;28;20138;-75
2022/09/18 09:02:24;;;;;;;0.75;0.65;;;10.90;99.90;;;;;;5039667;28;20050;-75
2022/09/18 09:04:57;;;;;;;0.95;0.55;;;10.90;99.90;;;;;;5056178;28;20043;-75
2022/09/18 09:07:36;;;;;;;2.60;0.90;;;10.80;99.90;;;;;;5039472;28;20121;-75
2022/09/18 09:10:16;;;;;;;1.00;0.63;;;10.80;99.90;;;;;;5056478;28;20128;-75
2022/09/18 09:12:55;;;;;;;0.45;0.45;;;10.80;99.90;;;;;;5056094;28;20116;-73
2022/09/18 09:15:41;;;;;;;0.50;0.30;;;10.80;99.90;;;;;;5039645;28;20056;-75
2022/09/18 09:18:30;;;;;;;1.73;0.55;;;10.80;99.90;;;;;;5039722;28;20040;-75
2022/09/18 09:21:00;;;;;;;0.57;0.40;;;10.80;99.90;;;;;;5056288;28;20052;-75
2022/09/18 09:23:35;;;;;;;2.80;0.93;;;10.80;99.90;;;;;;5055543;28;20067;-75
2022/09/18 09:26:04;;;;;;;1.15;0.85;;;10.80;99.90;;;;;;5039272;28;20048;-73
2022/09/18 09:28:58;;;;;;;0.47;0.40;;;10.90;99.90;;;;;;5056038;28;20510;-74
2022/09/18 09:31:26;;;;;;;1.85;0.50;;;10.80;99.90;;;;;;5047910;28;20105;-75
2022/09/18 09:34:09;;;;;;;1.25;0.32;;;10.70;99.90;;;;;;5039718;28;20503;-76
2022/09/18 09:36:36;;;;;;;1.48;0.50;;;10.80;99.90;;;;;;5039293;28;20494;-74
2022/09/18 09:39:22;;;;;;;1.80;0.43;;;10.00;99.90;;;;;;5055556;28;20120;-73
2022/09/18 09:42:16;;;;;;;1.27;0.60;;;10.70;99.90;;;;;;5055624;28;20124;-74
2022/09/18 09:44:58;;;;;;;2.42;0.60;;;10.70;99.90;;;;;;5055455;28;20036;-74
2022/09/18 09:47:34;;;;;;;0.57;0.47;;;10.70;99.90;;;;;;5038951;28;20097;-73
2022/09/18 09:50:33;;;;;;;0.50;0.35;;;10.60;99.90;;;;;;5057006;28;20094;-74
2022/09/18 09:53:03;;;;;;;1.05;0.55;;;10.60;99.90;;;;;;5055706;28;20032;-73
2022/09/18 09:55:43;;;;;;;1.42;0.57;;;10.70;99.90;;;;;;5055640;28;20083;-76
2022/09/18 09:58:36;;;;;;;0.43;0.30;;;10.70;99.90;;;;;;5055519;28;20127;-75
2022/09/18 10:01:23;;;;;;;0.75;0.40;;;10.70;99.90;;;;;;5055432;28;20070;-75
2022/09/18 10:04:08;;;;;;;1.98;0.45;;;10.90;99.90;;;;;;5055489;28;20097;-75
2022/09/18 10:06:51;;;;;;;1.10;0.32;;;10.80;99.90;;;;;;5038801;28;20036;-75
2022/09/18 10:09:23;;;;;;;0.63;0.32;;;10.80;99.90;;;;;;5055618;28;20032;-76
2022/09/18 10:12:04;;;;;;;3.28;0.40;;;11.00;99.90;;;;;;5039180;28;20041;-77
2022/09/18 10:14:33;;;;;;;1.45;0.68;;;10.80;99.90;;;;;;5055278;28;20048;-76
2022/09/18 10:17:02;;;;;;;0.60;0.40;;;10.90;99.90;;;;;;5038649;28;20043;-76
2022/09/18 10:19:37;;;;;;;0.35;0.35;;;11.00;99.90;;;;;;5038569;28;20114;-75
2022/09/18 10:22:06;;;;;;;1.42;0.40;;;10.90;99.90;;;;;;5055519;28;20510;-74
2022/09/18 10:24:45;;;;;;;5.45;0.50;;;10.90;99.90;;;;;;5055095;28;20080;-76
2022/09/18 10:27:13;;;;;;;3.10;0.68;;;11.00;99.90;;;;;;5055309;28;20040;-76
2022/09/18 10:29:39;;;;;;;0.52;0.20;;;11.00;99.90;;;;;;5055875;28;20036;-76
2022/09/18 10:32:06;;;;;;;1.95;0.50;;;11.40;99.90;;;;;;5055419;28;20037;-77
2022/09/18 10:34:38;;;;;;;1.98;1.25;;;11.10;99.90;;;;;;5039026;28;20055;-74
2022/09/18 10:37:05;;;;;;;6.22;1.00;;;11.10;99.90;;;;;;5059114;28;20051;-75
2022/09/18 10:39:33;;;;;;;1.00;0.57;;;11.10;99.90;;;;;;5043200;28;20040;-76
2022/09/18 10:42:04;;;;;;;3.65;1.23;;;11.20;99.90;;;;;;5043511;28;20052;-76
2022/09/18 10:44:33;;;;;;;;;;;11.20;99.90;;;;;;5060234;28;20040;-76
2022/09/18 10:47:05;;;;;;;0.63;0.43;;;11.30;99.90;;;;;;5042951;28;19916;-75
2022/09/18 10:49:58;;;;;;;0.40;0.40;;;11.30;99.90;;;;;;5059196;28;20542;-75
2022/09/18 10:52:39;;;;;;;0.32;0.25;;;11.30;99.90;;;;;;5042700;28;20070;-75
2022/09/18 10:55:06;;;;;;;3.13;0.45;;;11.40;99.90;;;;;;5058870;28;20055;-75
2022/09/18 10:57:34;;;;;;;0.77;0.47;;;11.40;99.90;;;;;;5042813;28;20048;-75
2022/09/18 11:00:07;;;;;;;1.45;0.60;;;11.50;99.90;;;;;;5059174;28;20088;-75
2022/09/18 11:02:39;;;;;;;2.35;0.60;;;11.50;99.90;;;;;;5042735;28;20097;-76
2022/09/18 11:05:13;;;;;;;4.93;0.70;;;11.60;99.90;;;;;;5058936;28;20551;-76
2022/09/18 11:07:49;;;;;;;0.80;0.43;;;11.60;99.90;;;;;;5059070;28;20043;-76
2022/09/18 11:10:23;;;;;;;1.05;0.60;;;11.90;99.90;;;;;;5059128;28;20040;-76
2022/09/18 11:12:55;;;;;;;3.30;0.88;;;11.70;99.90;;;;;;5042728;28;20123;-77
2022/09/18 11:15:24;;;;;;;1.02;0.52;;;11.80;99.90;;;;;;5059261;28;20037;-76
2022/09/18 11:17:53;;;;;;;1.20;0.40;;;11.80;99.90;;;;;;5025696;28;20046;-76
2022/09/18 11:20:23;;;;;;;0.88;0.50;;;11.90;99.90;;;;;;5041649;28;20114;-76
2022/09/18 11:22:50;;;;;;;1.95;0.52;;;12.00;99.90;;;;;;5041656;28;20045;-76
2022/09/18 11:25:27;;;;;;;1.88;0.40;;;11.90;99.90;;;;;;5058203;28;20036;-76
2022/09/18 11:27:58;;;;;;;2.50;0.47;;;12.10;99.90;;;;;;5025680;28;20073;-77
2022/09/18 11:30:24;;;;;;;;;;;12.10;99.90;;;;;;5058637;28;20036;-76
2022/09/18 11:33:12;;;;;;;2.15;0.50;;;12.10;99.90;;;;;;5058257;28;19938;-76
2022/09/18 11:35:45;;;;;;;2.55;0.95;;;12.20;99.90;;;;;;5058240;28;20044;-76
2022/09/18 11:38:18;;;;;;;0.32;0.32;;;12.20;99.90;;;;;;5041662;28;20075;-76
2022/09/18 11:40:49;;;;;;;0.77;0.40;;;12.20;99.90;;;;;;5058188;28;20102;-76
2022/09/18 11:43:26;;;;;;;1.95;0.52;;;12.30;99.90;;;;;;5058257;28;20097;-76
2022/09/18 11:46:07;;;;;;;1.70;0.60;;;12.40;99.90;;;;;;5057899;28;20514;-73
2022/09/18 11:48:42;;;;;;;1.80;0.50;;;12.40;99.90;;;;;;5057817;28;20123;-74
2022/09/18 11:51:25;;;;;;;2.13;0.93;;;12.50;99.90;;;;;;5041661;28;20041;-75
2022/09/18 11:53:56;;;;;;;1.58;0.75;;;;;;;;;;5058176;28;20083;-72
2022/09/18 11:56:47;;;;;;;2.65;0.73;;;12.60;99.90;;;;;;5058258;28;20045;-78
2022/09/18 11:59:25;;;;;;;6.07;0.63;;;12.70;99.90;;;;;;5049167;28;20056;-75
2022/09/18 12:01:57;;;;;;;2.15;0.73;;;12.70;99.90;;;;;;5041088;28;20044;-74
2022/09/18 12:04:42;;;;;;;1.10;0.55;;;12.80;99.90;;;;;;5057411;28;20136;-75
2022/09/18 12:07:34;;;;;;;2.05;0.70;;;12.80;99.90;;;;;;5057582;28;20139;-76
2022/09/18 12:10:14;;;;;;;1.95;0.65;;;12.90;99.90;;;;;;5057811;28;20032;-74
2022/09/18 12:13:00;;;;;;;0.95;0.55;;;12.90;99.90;;;;;;5057428;28;20036;-74
2022/09/18 12:15:35;;;;;;;0.63;0.40;;;12.90;99.90;;;;;;5039676;28;20041;-73
2022/09/18 12:18:08;;;;;;;2.00;0.50;;;12.90;99.90;;;;;;5057226;28;20051;-74
2022/09/18 12:20:47;;;;;;;2.03;0.70;;;12.90;99.90;;;;;;5057100;28;20064;-74
2022/09/18 12:23:23;;;;;;;4.95;0.50;;;13.00;99.90;;;;;;5057614;28;20044;-74
2022/09/18 12:26:13;;;;;;;1.23;0.60;;;13.00;99.90;;;;;;5057192;28;20398;-75
2022/09/18 12:28:58;;;;;;;1.77;0.65;;;13.00;99.90;;;;;;5040517;28;20032;-77
2022/09/18 12:31:58;;;;;;;3.15;0.60;;;13.00;99.90;;;;;;5057031;28;20036;-75
2022/09/18 12:34:59;;;;;;;0.75;0.40;;;13.00;99.90;;;;;;5057329;28;20082;-75
2022/09/18 12:37:52;;;;;;;4.75;0.80;;;13.00;99.90;;;;;;5040487;28;20044;-75
2022/09/18 12:40:33;;;;;;;3.85;0.60;;;13.00;99.90;;;;;;5056897;28;20051;-75
2022/09/18 12:43:33;;;;;;;1.58;0.70;;;13.00;99.90;;;;;;5057130;28;20048;-75
2022/09/18 12:46:23;;;;;;;1.75;0.70;;;13.10;99.90;;;;;;5056597;28;20049;-77
2022/09/18 12:49:14;;;;;;;1.80;0.80;;;13.20;99.90;;;;;;5040407;28;20033;-75
2022/09/18 12:51:58;;;;;;;3.88;1.30;;;13.20;99.90;;;;;;5056953;28;20044;-75
2022/09/18 12:54:49;;;;;;;0.95;0.70;;;13.30;99.90;;;;;;5056694;28;20067;-75
2022/09/18 12:57:45;;;;;;;4.20;0.70;;;13.40;99.90;;;;;;5056803;28;20503;-75
2022/09/18 13:00:13;;;;;;;2.92;0.68;;;13.50;99.90;;;;;;5039756;28;20097;-75
2022/09/18 13:02:54;;;;;;;2.75;0.75;;;13.50;99.90;;;;;;5056724;28;20509;-75
2022/09/18 13:05:41;;;;;;;0.93;0.57;;;13.50;99.90;;;;;;5056549;28;20074;-75
2022/09/18 13:08:11;;;;;;;3.40;0.77;;;13.50;99.90;;;;;;5039988;28;20044;-75
2022/09/18 13:10:43;;;;;;;1.05;0.65;;;13.50;99.90;;;;;;5039751;28;20040;-75
2022/09/18 13:13:13;;;;;;;1.70;0.55;;;13.50;99.90;;;;;;5056525;28;20119;-75
2022/09/18 13:15:45;;;;;;;0.30;0.30;;;13.80;99.90;;;;;;5039620;28;20048;-75